Ashburn, Georgia
Current Conditions -  °F | °C
As of 2:35 AM on Saturday 29 Nov 2014 (Local Time) from KCKF Reporting Station
Clear Clear  
Wind Chill: 32°   Ceiling: Unl
Heat Index: 32°   Visibility: 10mi
Dew Point: 31°   Wind: 0mph
Humidity: 94%   Direction: NA
Pressure: 30.31"   Gusts: NA
Location:  31.71°N, 83.65°W
Report Text: KCKF 290735Z AUTO 00000KT 10SM CLR 00/M01 A3031 RMK AO2 T00021007
Loading
Personal Weather Stations






























Interactive Weather Map New forecast layout! Learn more

10-Day Weather Forecast

Advertisements
Track Severe Weather on mobile